Beverly Municipal Airport Beverly US
ICAO: KBVY
IATA: BVY
Category: Medium
Scheduled Services: No

Elevation: 107 ft
TransAlt. 18000 ft.

Airport Communications:
BOSTON APP/DEP:124.4
ATIS:119.2
CTAF:125.2
GND:121.6
TWR:125.2
UNICOM:122.95

KBVY Zoom In..

If you have problems with the map follow the link
https://www.worldairports.se/pages/airport.php?
ICAO=KBVY

Runways:

(A) RW 09 length 4755 ft width 100 ft
LOC 110.50 / hdg 90

(B) RW 16 length 5001 ft width 100 ft
LOC 110.50 / hdg 157

(C) RW 27 length 4755 ft width 100 ft
LOC 110.50 / hdg 270

(D) RW 34 length 5001 ft width 100 ft
LOC 110.50 / hdg 337

Location; KBVY
Day. 10 / Time. 01.35 Zulu
* Altimeter: 29.75
* Temperature: 12° c. 53.6°f.
* Wind from: 180° Speed 10 kn.
Dewpoint: 11° c.
Visibility: 10 Statute Miles.
Clouds: Broken 1400 ft.
Clouds: Broken 4500 ft.
Clouds: Overcast 9500 ft.
Conditions: Light Rain.

KBVY 100135Z AUTO 18010KT 10SM -RA BKN014 BKN045 OVC095 12/11 A2975 RMK AO2 PRESFR P0001 T01220111


Wind From 180°
Speed 10 kn.

 
 
jpsmedia worldairports.se 2019   terms of use